sensor_id;sensor_type;location;lat;lon;timestamp;temperature;humidity
22173;DHT22;11252;50.596;17.648;2022-08-21T00:00:21;20.30;92.20
22173;DHT22;11252;50.596;17.648;2022-08-21T00:03:05;20.40;92.20
22173;DHT22;11252;50.596;17.648;2022-08-21T00:05:35;20.30;92.20
22173;DHT22;11252;50.596;17.648;2022-08-21T00:08:04;20.30;92.20
22173;DHT22;11252;50.596;17.648;2022-08-21T00:10:32;20.30;92.20
22173;DHT22;11252;50.596;17.648;2022-08-21T00:13:02;20.30;92.20
22173;DHT22;11252;50.596;17.648;2022-08-21T00:15:31;20.30;92.20
22173;DHT22;11252;50.596;17.648;2022-08-21T00:17:59;20.30;92.20
22173;DHT22;11252;50.596;17.648;2022-08-21T00:20:27;20.30;92.20
22173;DHT22;11252;50.596;17.648;2022-08-21T00:22:55;20.30;92.20
22173;DHT22;11252;50.596;17.648;2022-08-21T00:25:27;20.30;92.20
22173;DHT22;11252;50.596;17.648;2022-08-21T00:27:54;20.30;92.20
22173;DHT22;11252;50.596;17.648;2022-08-21T00:30:24;20.30;92.20
22173;DHT22;11252;50.596;17.648;2022-08-21T00:32:52;20.30;92.20
22173;DHT22;11252;50.596;17.648;2022-08-21T00:35:24;20.30;92.20
22173;DHT22;11252;50.596;17.648;2022-08-21T00:37:52;20.30;92.20
22173;DHT22;11252;50.596;17.648;2022-08-21T00:40:26;20.30;92.20
22173;DHT22;11252;50.596;17.648;2022-08-21T00:42:55;20.30;92.20
22173;DHT22;11252;50.596;17.648;2022-08-21T00:45:23;20.30;92.20
22173;DHT22;11252;50.596;17.648;2022-08-21T00:47:51;20.30;92.20
22173;DHT22;11252;50.596;17.648;2022-08-21T00:50:22;20.30;92.20
22173;DHT22;11252;50.596;17.648;2022-08-21T00:52:51;20.30;92.20
22173;DHT22;11252;50.596;17.648;2022-08-21T00:55:20;20.30;92.20
22173;DHT22;11252;50.596;17.648;2022-08-21T00:57:52;20.30;92.20
22173;DHT22;11252;50.596;17.648;2022-08-21T01:00:30;20.30;92.20
22173;DHT22;11252;50.596;17.648;2022-08-21T01:03:00;20.30;92.20
22173;DHT22;11252;50.596;17.648;2022-08-21T01:05:33;20.30;92.20
22173;DHT22;11252;50.596;17.648;2022-08-21T01:08:00;20.30;92.20
22173;DHT22;11252;50.596;17.648;2022-08-21T01:10:31;20.20;92.20
22173;DHT22;11252;50.596;17.648;2022-08-21T01:12:59;20.20;92.20
22173;DHT22;11252;50.596;17.648;2022-08-21T01:15:36;20.20;92.20
22173;DHT22;11252;50.596;17.648;2022-08-21T01:18:06;20.20;92.20
22173;DHT22;11252;50.596;17.648;2022-08-21T01:20:35;20.20;92.20
22173;DHT22;11252;50.596;17.648;2022-08-21T01:23:04;20.20;92.20
22173;DHT22;11252;50.596;17.648;2022-08-21T01:25:32;20.20;92.20
22173;DHT22;11252;50.596;17.648;2022-08-21T01:28:06;20.20;92.20
22173;DHT22;11252;50.596;17.648;2022-08-21T01:30:37;20.20;92.20
22173;DHT22;11252;50.596;17.648;2022-08-21T01:33:05;20.20;92.20
22173;DHT22;11252;50.596;17.648;2022-08-21T01:35:33;20.20;92.20
22173;DHT22;11252;50.596;17.648;2022-08-21T01:38:01;20.30;92.20
22173;DHT22;11252;50.596;17.648;2022-08-21T01:40:28;20.30;92.20
22173;DHT22;11252;50.596;17.648;2022-08-21T01:42:56;20.30;92.20
22173;DHT22;11252;50.596;17.648;2022-08-21T01:45:24;20.30;92.20
22173;DHT22;11252;50.596;17.648;2022-08-21T01:47:51;20.30;92.20
22173;DHT22;11252;50.596;17.648;2022-08-21T01:50:20;20.20;92.20
22173;DHT22;11252;50.596;17.648;2022-08-21T01:52:48;20.20;92.20
22173;DHT22;11252;50.596;17.648;2022-08-21T01:55:17;20.20;92.20
22173;DHT22;11252;50.596;17.648;2022-08-21T01:57:46;20.20;92.20
22173;DHT22;11252;50.596;17.648;2022-08-21T02:00:16;20.20;92.20
22173;DHT22;11252;50.596;17.648;2022-08-21T02:02:44;20.20;92.20
22173;DHT22;11252;50.596;17.648;2022-08-21T02:05:12;20.20;92.20
22173;DHT22;11252;50.596;17.648;2022-08-21T02:07:44;20.20;92.20
22173;DHT22;11252;50.596;17.648;2022-08-21T02:10:14;20.20;92.20
22173;DHT22;11252;50.596;17.648;2022-08-21T02:12:42;20.20;92.20
22173;DHT22;11252;50.596;17.648;2022-08-21T02:15:09;20.20;92.20
22173;DHT22;11252;50.596;17.648;2022-08-21T02:17:45;20.20;92.20
22173;DHT22;11252;50.596;17.648;2022-08-21T02:20:25;20.20;92.20
22173;DHT22;11252;50.596;17.648;2022-08-21T02:22:53;20.20;92.20
22173;DHT22;11252;50.596;17.648;2022-08-21T02:25:22;20.30;92.20
22173;DHT22;11252;50.596;17.648;2022-08-21T02:27:51;20.20;92.20
22173;DHT22;11252;50.596;17.648;2022-08-21T02:30:23;20.20;92.20
22173;DHT22;11252;50.596;17.648;2022-08-21T02:32:50;20.20;92.20
22173;DHT22;11252;50.596;17.648;2022-08-21T02:35:18;20.20;92.20
22173;DHT22;11252;50.596;17.648;2022-08-21T02:37:53;20.20;92.20
22173;DHT22;11252;50.596;17.648;2022-08-21T02:40:26;20.20;92.20
22173;DHT22;11252;50.596;17.648;2022-08-21T02:42:54;20.20;92.20
22173;DHT22;11252;50.596;17.648;2022-08-21T02:45:22;20.20;92.20
22173;DHT22;11252;50.596;17.648;2022-08-21T02:48:00;20.20;92.20
22173;DHT22;11252;50.596;17.648;2022-08-21T02:50:39;20.20;92.20
22173;DHT22;11252;50.596;17.648;2022-08-21T02:53:09;20.20;92.20
22173;DHT22;11252;50.596;17.648;2022-08-21T02:55:38;20.20;92.20
22173;DHT22;11252;50.596;17.648;2022-08-21T02:58:07;20.20;92.20
22173;DHT22;11252;50.596;17.648;2022-08-21T03:00:37;20.20;92.20
22173;DHT22;11252;50.596;17.648;2022-08-21T03:03:05;20.20;92.20
22173;DHT22;11252;50.596;17.648;2022-08-21T03:05:35;20.20;92.20
22173;DHT22;11252;50.596;17.648;2022-08-21T03:08:06;20.20;92.20
22173;DHT22;11252;50.596;17.648;2022-08-21T03:10:38;20.20;92.20
22173;DHT22;11252;50.596;17.648;2022-08-21T03:13:07;20.20;92.20
22173;DHT22;11252;50.596;17.648;2022-08-21T03:15:35;20.20;92.20
22173;DHT22;11252;50.596;17.648;2022-08-21T03:18:04;20.20;92.20
22173;DHT22;11252;50.596;17.648;2022-08-21T03:20:33;20.20;92.20
22173;DHT22;11252;50.596;17.648;2022-08-21T03:23:02;20.20;92.20
22173;DHT22;11252;50.596;17.648;2022-08-21T03:25:39;20.20;92.20
22173;DHT22;11252;50.596;17.648;2022-08-21T03:28:09;20.10;92.20
22173;DHT22;11252;50.596;17.648;2022-08-21T03:30:47;20.10;92.20
22173;DHT22;11252;50.596;17.648;2022-08-21T03:33:15;20.10;92.20
22173;DHT22;11252;50.596;17.648;2022-08-21T03:35:58;20.10;92.20
22173;DHT22;11252;50.596;17.648;2022-08-21T03:38:29;20.10;92.20
22173;DHT22;11252;50.596;17.648;2022-08-21T03:40:58;20.10;92.20
22173;DHT22;11252;50.596;17.648;2022-08-21T03:43:26;20.00;92.20
22173;DHT22;11252;50.596;17.648;2022-08-21T03:45:59;20.00;92.20
22173;DHT22;11252;50.596;17.648;2022-08-21T03:48:27;19.90;92.20
22173;DHT22;11252;50.596;17.648;2022-08-21T03:50:55;19.80;92.20
22173;DHT22;11252;50.596;17.648;2022-08-21T03:53:23;19.60;92.20
22173;DHT22;11252;50.596;17.648;2022-08-21T03:55:53;19.50;92.20
22173;DHT22;11252;50.596;17.648;2022-08-21T03:58:23;19.40;92.20
22173;DHT22;11252;50.596;17.648;2022-08-21T04:00:53;19.30;92.20
22173;DHT22;11252;50.596;17.648;2022-08-21T04:03:21;19.30;92.20
22173;DHT22;11252;50.596;17.648;2022-08-21T04:05:48;19.20;92.20
22173;DHT22;11252;50.596;17.648;2022-08-21T04:08:16;19.10;92.20
22173;DHT22;11252;50.596;17.648;2022-08-21T04:10:49;19.00;92.20
22173;DHT22;11252;50.596;17.648;2022-08-21T04:13:17;19.00;92.20
22173;DHT22;11252;50.596;17.648;2022-08-21T04:15:45;18.90;92.20
22173;DHT22;11252;50.596;17.648;2022-08-21T04:18:13;18.90;92.20
22173;DHT22;11252;50.596;17.648;2022-08-21T04:20:42;18.80;92.20
22173;DHT22;11252;50.596;17.648;2022-08-21T04:23:17;18.80;92.20
22173;DHT22;11252;50.596;17.648;2022-08-21T04:25:50;18.80;92.20
22173;DHT22;11252;50.596;17.648;2022-08-21T04:28:18;18.70;92.20
22173;DHT22;11252;50.596;17.648;2022-08-21T04:30:46;18.70;92.20
22173;DHT22;11252;50.596;17.648;2022-08-21T04:33:13;18.70;92.20
22173;DHT22;11252;50.596;17.648;2022-08-21T04:35:41;18.60;92.20
22173;DHT22;11252;50.596;17.648;2022-08-21T04:38:09;18.60;92.20
22173;DHT22;11252;50.596;17.648;2022-08-21T04:40:37;18.60;92.20
22173;DHT22;11252;50.596;17.648;2022-08-21T04:43:07;18.60;92.20
22173;DHT22;11252;50.596;17.648;2022-08-21T04:45:40;18.60;92.20
22173;DHT22;11252;50.596;17.648;2022-08-21T04:48:10;18.60;92.20
22173;DHT22;11252;50.596;17.648;2022-08-21T04:50:41;18.50;92.20
22173;DHT22;11252;50.596;17.648;2022-08-21T04:53:41;18.50;92.20
22173;DHT22;11252;50.596;17.648;2022-08-21T04:56:09;18.50;92.20
22173;DHT22;11252;50.596;17.648;2022-08-21T04:58:39;18.50;92.20
22173;DHT22;11252;50.596;17.648;2022-08-21T05:01:12;18.50;92.20
22173;DHT22;11252;50.596;17.648;2022-08-21T05:03:41;18.50;92.20
22173;DHT22;11252;50.596;17.648;2022-08-21T05:06:13;18.50;92.20
22173;DHT22;11252;50.596;17.648;2022-08-21T05:10:22;18.50;92.20
22173;DHT22;11252;50.596;17.648;2022-08-21T05:12:50;18.40;92.20
22173;DHT22;11252;50.596;17.648;2022-08-21T05:15:18;18.40;92.20
22173;DHT22;11252;50.596;17.648;2022-08-21T05:17:45;18.40;92.20
22173;DHT22;11252;50.596;17.648;2022-08-21T05:20:27;18.40;92.20
22173;DHT22;11252;50.596;17.648;2022-08-21T05:22:56;18.40;92.20
22173;DHT22;11252;50.596;17.648;2022-08-21T05:25:25;18.40;92.20
22173;DHT22;11252;50.596;17.648;2022-08-21T05:27:54;18.40;92.20
22173;DHT22;11252;50.596;17.648;2022-08-21T05:30:26;18.40;92.20
22173;DHT22;11252;50.596;17.648;2022-08-21T05:33:00;18.30;92.20
22173;DHT22;11252;50.596;17.648;2022-08-21T05:35:29;18.30;92.20
22173;DHT22;11252;50.596;17.648;2022-08-21T05:38:06;18.30;92.20
22173;DHT22;11252;50.596;17.648;2022-08-21T05:40:45;18.30;92.20
22173;DHT22;11252;50.596;17.648;2022-08-21T05:43:14;18.30;92.20
22173;DHT22;11252;50.596;17.648;2022-08-21T05:45:41;18.30;92.20
22173;DHT22;11252;50.596;17.648;2022-08-21T05:48:16;18.30;92.20
22173;DHT22;11252;50.596;17.648;2022-08-21T05:50:47;18.30;92.20
22173;DHT22;11252;50.596;17.648;2022-08-21T05:53:16;18.20;92.20
22173;DHT22;11252;50.596;17.648;2022-08-21T05:55:44;18.20;92.20
22173;DHT22;11252;50.596;17.648;2022-08-21T05:58:17;18.20;92.20
22173;DHT22;11252;50.596;17.648;2022-08-21T06:00:48;18.20;92.20
22173;DHT22;11252;50.596;17.648;2022-08-21T06:03:25;18.20;92.20
22173;DHT22;11252;50.596;17.648;2022-08-21T06:05:54;18.20;92.20
22173;DHT22;11252;50.596;17.648;2022-08-21T06:08:24;18.20;92.20
22173;DHT22;11252;50.596;17.648;2022-08-21T06:10:53;18.10;92.20
22173;DHT22;11252;50.596;17.648;2022-08-21T06:13:21;18.10;92.20
22173;DHT22;11252;50.596;17.648;2022-08-21T06:15:50;18.10;92.20
22173;DHT22;11252;50.596;17.648;2022-08-21T06:18:17;18.10;92.20
22173;DHT22;11252;50.596;17.648;2022-08-21T06:20:45;18.10;92.20
22173;DHT22;11252;50.596;17.648;2022-08-21T06:23:12;18.10;92.20
22173;DHT22;11252;50.596;17.648;2022-08-21T06:25:40;18.10;92.20
22173;DHT22;11252;50.596;17.648;2022-08-21T06:28:09;18.20;92.20
22173;DHT22;11252;50.596;17.648;2022-08-21T06:30:39;18.20;92.20
22173;DHT22;11252;50.596;17.648;2022-08-21T06:33:07;18.20;92.20
22173;DHT22;11252;50.596;17.648;2022-08-21T06:35:35;18.20;92.20
22173;DHT22;11252;50.596;17.648;2022-08-21T06:38:07;18.20;92.20
22173;DHT22;11252;50.596;17.648;2022-08-21T06:40:35;18.20;92.20
22173;DHT22;11252;50.596;17.648;2022-08-21T06:43:11;18.30;92.20
22173;DHT22;11252;50.596;17.648;2022-08-21T06:45:41;18.30;92.20
22173;DHT22;11252;50.596;17.648;2022-08-21T06:48:09;18.30;92.20
22173;DHT22;11252;50.596;17.648;2022-08-21T06:50:42;18.30;92.20
22173;DHT22;11252;50.596;17.648;2022-08-21T06:53:12;18.30;92.20
22173;DHT22;11252;50.596;17.648;2022-08-21T06:55:40;18.40;92.20
22173;DHT22;11252;50.596;17.648;2022-08-21T06:58:09;18.40;92.20
22173;DHT22;11252;50.596;17.648;2022-08-21T07:00:44;18.40;92.20
22173;DHT22;11252;50.596;17.648;2022-08-21T07:03:18;18.40;92.20
22173;DHT22;11252;50.596;17.648;2022-08-21T07:05:46;18.40;92.20
22173;DHT22;11252;50.596;17.648;2022-08-21T07:08:13;18.40;92.20
22173;DHT22;11252;50.596;17.648;2022-08-21T07:10:42;18.40;92.20
22173;DHT22;11252;50.596;17.648;2022-08-21T07:13:09;18.40;92.20
22173;DHT22;11252;50.596;17.648;2022-08-21T07:15:36;18.40;92.20
22173;DHT22;11252;50.596;17.648;2022-08-21T07:18:04;18.50;92.20
22173;DHT22;11252;50.596;17.648;2022-08-21T07:20:33;18.50;92.20
22173;DHT22;11252;50.596;17.648;2022-08-21T07:23:03;18.50;92.20
22173;DHT22;11252;50.596;17.648;2022-08-21T07:25:32;18.50;92.20
22173;DHT22;11252;50.596;17.648;2022-08-21T07:27:59;18.40;92.20
22173;DHT22;11252;50.596;17.648;2022-08-21T07:30:27;18.40;92.20
22173;DHT22;11252;50.596;17.648;2022-08-21T07:32:55;18.40;92.20
22173;DHT22;11252;50.596;17.648;2022-08-21T07:35:24;18.40;92.20
22173;DHT22;11252;50.596;17.648;2022-08-21T07:37:52;18.50;92.20
22173;DHT22;11252;50.596;17.648;2022-08-21T07:40:22;18.50;92.20
22173;DHT22;11252;50.596;17.648;2022-08-21T07:42:50;18.50;92.20
22173;DHT22;11252;50.596;17.648;2022-08-21T07:45:20;18.50;92.20
22173;DHT22;11252;50.596;17.648;2022-08-21T07:47:48;18.40;92.20
22173;DHT22;11252;50.596;17.648;2022-08-21T07:50:22;18.50;92.20
22173;DHT22;11252;50.596;17.648;2022-08-21T07:52:50;18.50;92.20
22173;DHT22;11252;50.596;17.648;2022-08-21T07:55:21;18.50;92.20
22173;DHT22;11252;50.596;17.648;2022-08-21T07:57:54;18.50;92.20
22173;DHT22;11252;50.596;17.648;2022-08-21T08:00:24;18.50;92.20
22173;DHT22;11252;50.596;17.648;2022-08-21T08:02:52;18.60;92.20
22173;DHT22;11252;50.596;17.648;2022-08-21T08:05:25;18.60;92.20
22173;DHT22;11252;50.596;17.648;2022-08-21T08:07:53;18.60;92.20
22173;DHT22;11252;50.596;17.648;2022-08-21T08:10:22;18.60;92.20
22173;DHT22;11252;50.596;17.648;2022-08-21T08:12:51;18.60;92.20
22173;DHT22;11252;50.596;17.648;2022-08-21T08:15:23;18.50;92.20
22173;DHT22;11252;50.596;17.648;2022-08-21T08:17:51;18.50;92.20
22173;DHT22;11252;50.596;17.648;2022-08-21T08:20:19;18.50;92.20
22173;DHT22;11252;50.596;17.648;2022-08-21T08:22:47;18.50;92.20
22173;DHT22;11252;50.596;17.648;2022-08-21T08:25:16;18.40;92.20
22173;DHT22;11252;50.596;17.648;2022-08-21T08:27:44;18.30;92.20
22173;DHT22;11252;50.596;17.648;2022-08-21T08:30:14;18.20;92.20
22173;DHT22;11252;50.596;17.648;2022-08-21T08:32:42;18.20;92.20
22173;DHT22;11252;50.596;17.648;2022-08-21T08:35:09;18.10;92.20
22173;DHT22;11252;50.596;17.648;2022-08-21T08:37:38;17.90;92.20
22173;DHT22;11252;50.596;17.648;2022-08-21T08:40:12;17.80;92.20
22173;DHT22;11252;50.596;17.648;2022-08-21T08:42:41;17.70;92.20
22173;DHT22;11252;50.596;17.648;2022-08-21T08:45:13;17.60;92.20
22173;DHT22;11252;50.596;17.648;2022-08-21T08:47:49;17.50;92.20
22173;DHT22;11252;50.596;17.648;2022-08-21T08:50:49;17.50;92.20
22173;DHT22;11252;50.596;17.648;2022-08-21T08:53:23;17.50;92.20
22173;DHT22;11252;50.596;17.648;2022-08-21T08:55:52;17.40;92.20
22173;DHT22;11252;50.596;17.648;2022-08-21T08:58:41;17.40;92.20
22173;DHT22;11252;50.596;17.648;2022-08-21T09:01:16;17.40;92.20
22173;DHT22;11252;50.596;17.648;2022-08-21T09:03:46;17.40;92.20
22173;DHT22;11252;50.596;17.648;2022-08-21T09:06:49;17.50;92.20
22173;DHT22;11252;50.596;17.648;2022-08-21T09:09:38;17.50;92.20
22173;DHT22;11252;50.596;17.648;2022-08-21T09:12:28;17.50;92.20
22173;DHT22;11252;50.596;17.648;2022-08-21T09:26:26;17.40;92.20
22173;DHT22;11252;50.596;17.648;2022-08-21T09:28:58;17.40;92.20
22173;DHT22;11252;50.596;17.648;2022-08-21T09:31:31;17.50;92.20
22173;DHT22;11252;50.596;17.648;2022-08-21T09:34:05;17.50;92.20
22173;DHT22;11252;50.596;17.648;2022-08-21T09:36:47;17.60;92.20
22173;DHT22;11252;50.596;17.648;2022-08-21T09:39:38;17.60;92.20
22173;DHT22;11252;50.596;17.648;2022-08-21T09:42:11;17.60;92.20
22173;DHT22;11252;50.596;17.648;2022-08-21T09:44:48;17.60;92.20
22173;DHT22;11252;50.596;17.648;2022-08-21T09:47:18;17.60;92.20
22173;DHT22;11252;50.596;17.648;2022-08-21T09:49:52;17.60;92.20
22173;DHT22;11252;50.596;17.648;2022-08-21T09:52:22;17.40;92.20
22173;DHT22;11252;50.596;17.648;2022-08-21T09:54:54;17.40;92.20
22173;DHT22;11252;50.596;17.648;2022-08-21T09:57:27;17.30;92.20
22173;DHT22;11252;50.596;17.648;2022-08-21T10:00:27;17.30;92.20
22173;DHT22;11252;50.596;17.648;2022-08-21T10:05:38;17.20;92.20
22173;DHT22;11252;50.596;17.648;2022-08-21T10:08:17;17.20;92.20
22173;DHT22;11252;50.596;17.648;2022-08-21T10:10:45;17.20;92.20
22173;DHT22;11252;50.596;17.648;2022-08-21T10:15:53;17.10;92.20
22173;DHT22;11252;50.596;17.648;2022-08-21T10:19:05;17.10;92.20
22173;DHT22;11252;50.596;17.648;2022-08-21T10:24:29;17.20;92.20
22173;DHT22;11252;50.596;17.648;2022-08-21T10:27:12;17.10;92.20
22173;DHT22;11252;50.596;17.648;2022-08-21T10:29:55;17.10;92.20
22173;DHT22;11252;50.596;17.648;2022-08-21T10:35:15;17.10;92.20
22173;DHT22;11252;50.596;17.648;2022-08-21T10:38:07;17.00;92.20
22173;DHT22;11252;50.596;17.648;2022-08-21T10:41:26;16.90;92.20
22173;DHT22;11252;50.596;17.648;2022-08-21T10:47:15;16.80;92.20
22173;DHT22;11252;50.596;17.648;2022-08-21T10:53:01;16.70;92.20
22173;DHT22;11252;50.596;17.648;2022-08-21T10:55:35;16.70;92.20
22173;DHT22;11252;50.596;17.648;2022-08-21T10:58:10;16.70;92.20
22173;DHT22;11252;50.596;17.648;2022-08-21T11:00:50;16.60;92.20
22173;DHT22;11252;50.596;17.648;2022-08-21T11:03:27;16.50;92.20
22173;DHT22;11252;50.596;17.648;2022-08-21T11:06:18;16.50;92.20
22173;DHT22;11252;50.596;17.648;2022-08-21T11:09:06;16.50;92.20
22173;DHT22;11252;50.596;17.648;2022-08-21T11:11:59;16.40;92.20
22173;DHT22;11252;50.596;17.648;2022-08-21T11:14:55;16.40;92.20
22173;DHT22;11252;50.596;17.648;2022-08-21T11:17:34;16.40;92.20
22173;DHT22;11252;50.596;17.648;2022-08-21T11:20:10;16.40;92.20
22173;DHT22;11252;50.596;17.648;2022-08-21T11:23:01;16.40;92.20
22173;DHT22;11252;50.596;17.648;2022-08-21T11:28:52;16.40;92.20
22173;DHT22;11252;50.596;17.648;2022-08-21T11:36:41;16.50;92.20
22173;DHT22;11252;50.596;17.648;2022-08-21T11:45:17;16.60;92.20
22173;DHT22;11252;50.596;17.648;2022-08-21T11:47:52;16.70;92.20
22173;DHT22;11252;50.596;17.648;2022-08-21T11:50:26;16.70;92.20
22173;DHT22;11252;50.596;17.648;2022-08-21T11:53:41;16.70;92.20
22173;DHT22;11252;50.596;17.648;2022-08-21T11:56:40;16.70;92.20
22173;DHT22;11252;50.596;17.648;2022-08-21T11:59:19;16.70;92.20
22173;DHT22;11252;50.596;17.648;2022-08-21T12:01:50;16.70;92.20
22173;DHT22;11252;50.596;17.648;2022-08-21T12:04:36;16.70;92.20
22173;DHT22;11252;50.596;17.648;2022-08-21T12:07:17;16.70;92.20
22173;DHT22;11252;50.596;17.648;2022-08-21T12:09:53;16.70;92.20
22173;DHT22;11252;50.596;17.648;2022-08-21T12:12:33;16.70;92.20
22173;DHT22;11252;50.596;17.648;2022-08-21T12:18:18;16.70;92.20
22173;DHT22;11252;50.596;17.648;2022-08-21T12:24:19;16.80;92.20
22173;DHT22;11252;50.596;17.648;2022-08-21T12:26:32;16.80;92.20
22173;DHT22;11252;50.596;17.648;2022-08-21T12:29:16;16.80;92.20
22173;DHT22;11252;50.596;17.648;2022-08-21T12:31:50;16.80;92.20
22173;DHT22;11252;50.596;17.648;2022-08-21T12:34:20;16.70;92.20
22173;DHT22;11252;50.596;17.648;2022-08-21T12:37:00;16.70;92.20
22173;DHT22;11252;50.596;17.648;2022-08-21T12:39:31;16.80;92.20
22173;DHT22;11252;50.596;17.648;2022-08-21T12:42:17;16.80;92.20
22173;DHT22;11252;50.596;17.648;2022-08-21T12:45:19;16.80;92.20
22173;DHT22;11252;50.596;17.648;2022-08-21T12:50:26;16.80;92.20
22173;DHT22;11252;50.596;17.648;2022-08-21T12:53:22;16.80;92.20
22173;DHT22;11252;50.596;17.648;2022-08-21T12:55:51;16.80;92.20
22173;DHT22;11252;50.596;17.648;2022-08-21T12:58:23;16.90;92.20
22173;DHT22;11252;50.596;17.648;2022-08-21T13:00:54;16.90;92.20
22173;DHT22;11252;50.596;17.648;2022-08-21T13:03:23;16.90;92.20
22173;DHT22;11252;50.596;17.648;2022-08-21T13:05:51;16.90;92.20
22173;DHT22;11252;50.596;17.648;2022-08-21T13:08:21;16.90;92.20
22173;DHT22;11252;50.596;17.648;2022-08-21T13:11:01;16.90;92.20
22173;DHT22;11252;50.596;17.648;2022-08-21T13:13:42;16.90;92.20
22173;DHT22;11252;50.596;17.648;2022-08-21T13:16:27;16.90;92.20
22173;DHT22;11252;50.596;17.648;2022-08-21T13:19:00;16.90;92.20
22173;DHT22;11252;50.596;17.648;2022-08-21T13:21:33;16.80;92.20
22173;DHT22;11252;50.596;17.648;2022-08-21T13:27:01;16.80;92.20
22173;DHT22;11252;50.596;17.648;2022-08-21T13:29:34;16.80;92.20
22173;DHT22;11252;50.596;17.648;2022-08-21T13:32:05;16.80;92.20
22173;DHT22;11252;50.596;17.648;2022-08-21T13:34:36;16.80;92.20
22173;DHT22;11252;50.596;17.648;2022-08-21T13:37:06;16.90;92.20
22173;DHT22;11252;50.596;17.648;2022-08-21T13:39:34;16.90;92.20
22173;DHT22;11252;50.596;17.648;2022-08-21T13:42:10;16.90;92.20
22173;DHT22;11252;50.596;17.648;2022-08-21T13:44:45;16.90;92.20
22173;DHT22;11252;50.596;17.648;2022-08-21T13:47:15;16.90;92.20
22173;DHT22;11252;50.596;17.648;2022-08-21T13:49:46;17.00;92.20
22173;DHT22;11252;50.596;17.648;2022-08-21T13:52:24;17.00;92.20
22173;DHT22;11252;50.596;17.648;2022-08-21T13:55:07;17.00;92.20
22173;DHT22;11252;50.596;17.648;2022-08-21T13:57:37;17.00;92.20
22173;DHT22;11252;50.596;17.648;2022-08-21T14:00:18;17.00;92.20
22173;DHT22;11252;50.596;17.648;2022-08-21T14:02:49;17.00;92.20
22173;DHT22;11252;50.596;17.648;2022-08-21T14:05:29;17.00;92.20
22173;DHT22;11252;50.596;17.648;2022-08-21T14:08:05;17.00;92.20
22173;DHT22;11252;50.596;17.648;2022-08-21T14:10:40;17.00;92.20
22173;DHT22;11252;50.596;17.648;2022-08-21T14:15:56;17.00;92.20
22173;DHT22;11252;50.596;17.648;2022-08-21T14:21:30;17.10;92.20
22173;DHT22;11252;50.596;17.648;2022-08-21T14:24:24;17.00;92.20
22173;DHT22;11252;50.596;17.648;2022-08-21T14:29:37;16.90;92.20
22173;DHT22;11252;50.596;17.648;2022-08-21T14:32:26;16.90;92.20
22173;DHT22;11252;50.596;17.648;2022-08-21T14:34:58;16.90;92.20
22173;DHT22;11252;50.596;17.648;2022-08-21T14:37:27;16.90;92.20
22173;DHT22;11252;50.596;17.648;2022-08-21T14:40:19;16.90;92.20
22173;DHT22;11252;50.596;17.648;2022-08-21T14:43:25;16.90;92.20
22173;DHT22;11252;50.596;17.648;2022-08-21T14:45:53;16.90;92.20
22173;DHT22;11252;50.596;17.648;2022-08-21T14:48:21;16.80;92.20
22173;DHT22;11252;50.596;17.648;2022-08-21T14:50:49;16.80;92.20
22173;DHT22;11252;50.596;17.648;2022-08-21T14:53:16;16.80;92.20
22173;DHT22;11252;50.596;17.648;2022-08-21T14:55:44;16.70;92.20
22173;DHT22;11252;50.596;17.648;2022-08-21T14:58:29;16.70;92.20
22173;DHT22;11252;50.596;17.648;2022-08-21T15:00:58;16.60;92.20
22173;DHT22;11252;50.596;17.648;2022-08-21T15:03:26;16.60;92.20
22173;DHT22;11252;50.596;17.648;2022-08-21T15:05:53;16.60;92.20
22173;DHT22;11252;50.596;17.648;2022-08-21T15:08:21;16.60;92.20
22173;DHT22;11252;50.596;17.648;2022-08-21T15:10:49;16.60;92.20
22173;DHT22;11252;50.596;17.648;2022-08-21T15:13:36;16.60;92.20
22173;DHT22;11252;50.596;17.648;2022-08-21T15:16:04;16.60;92.20
22173;DHT22;11252;50.596;17.648;2022-08-21T15:18:32;16.60;92.20
22173;DHT22;11252;50.596;17.648;2022-08-21T15:20:59;16.60;92.20
22173;DHT22;11252;50.596;17.648;2022-08-21T15:23:28;16.60;92.20
22173;DHT22;11252;50.596;17.648;2022-08-21T15:25:56;16.60;92.20
22173;DHT22;11252;50.596;17.648;2022-08-21T15:28:26;16.60;92.20
22173;DHT22;11252;50.596;17.648;2022-08-21T15:30:59;16.60;92.20
22173;DHT22;11252;50.596;17.648;2022-08-21T15:33:27;16.60;92.20
22173;DHT22;11252;50.596;17.648;2022-08-21T15:41:37;16.60;92.20
22173;DHT22;11252;50.596;17.648;2022-08-21T15:44:04;16.60;92.20
22173;DHT22;11252;50.596;17.648;2022-08-21T15:46:32;16.60;92.20
22173;DHT22;11252;50.596;17.648;2022-08-21T15:48:59;16.60;92.20
22173;DHT22;11252;50.596;17.648;2022-08-21T15:51:26;16.60;92.20
22173;DHT22;11252;50.596;17.648;2022-08-21T15:53:54;16.60;92.20
22173;DHT22;11252;50.596;17.648;2022-08-21T15:56:25;16.60;92.20
22173;DHT22;11252;50.596;17.648;2022-08-21T15:58:59;16.60;92.20
22173;DHT22;11252;50.596;17.648;2022-08-21T16:01:27;16.60;92.20
22173;DHT22;11252;50.596;17.648;2022-08-21T16:04:11;16.60;92.20
22173;DHT22;11252;50.596;17.648;2022-08-21T16:06:43;16.50;92.20
22173;DHT22;11252;50.596;17.648;2022-08-21T16:09:20;16.50;92.20
22173;DHT22;11252;50.596;17.648;2022-08-21T16:11:48;16.50;92.20
22173;DHT22;11252;50.596;17.648;2022-08-21T16:14:17;16.50;92.20
22173;DHT22;11252;50.596;17.648;2022-08-21T16:16:45;16.50;92.20
22173;DHT22;11252;50.596;17.648;2022-08-21T16:19:13;16.60;92.20
22173;DHT22;11252;50.596;17.648;2022-08-21T16:21:40;16.60;92.20
22173;DHT22;11252;50.596;17.648;2022-08-21T16:24:08;16.60;92.20
22173;DHT22;11252;50.596;17.648;2022-08-21T16:26:35;16.50;92.20
22173;DHT22;11252;50.596;17.648;2022-08-21T16:29:04;16.60;92.20
22173;DHT22;11252;50.596;17.648;2022-08-21T16:31:33;16.60;92.20
22173;DHT22;11252;50.596;17.648;2022-08-21T16:34:00;16.60;92.20
22173;DHT22;11252;50.596;17.648;2022-08-21T16:36:28;16.60;92.20
22173;DHT22;11252;50.596;17.648;2022-08-21T16:38:57;16.60;92.20
22173;DHT22;11252;50.596;17.648;2022-08-21T16:41:28;16.60;92.20
22173;DHT22;11252;50.596;17.648;2022-08-21T16:43:56;16.60;92.20
22173;DHT22;11252;50.596;17.648;2022-08-21T16:46:24;16.60;92.20
22173;DHT22;11252;50.596;17.648;2022-08-21T16:48:52;16.60;92.20
22173;DHT22;11252;50.596;17.648;2022-08-21T16:51:21;16.60;92.20
22173;DHT22;11252;50.596;17.648;2022-08-21T16:53:48;16.60;92.20
22173;DHT22;11252;50.596;17.648;2022-08-21T16:56:16;16.60;92.20
22173;DHT22;11252;50.596;17.648;2022-08-21T16:58:47;16.60;92.20